< < Back
Terminal Aerodrome Forecast


Current Version              Previous Versions:   1  2  3  4  5  6  7  8  9  

Terminal Aerodrome Forecast

142
FTUS42 KILM 281200 CCA
TAFILM
TAF COR
KILM 281217Z 2812/0112 03013G18KT P6SM SCT040 SCT160
      TEMPO 2812/2814 5SM BR
     FM281700 03013G18KT P6SM BKN035
     FM010200 02013G20KT P6SM BKN020
     FM011000 03013G20KT P6SM -RA OVC008=

Latest METAR

974
SAUS70 KWBC 282000 RRD
MTRILM
METAR KILM 281953Z 02012KT 10SM CLR 10/M04 A3063 RMK AO2 SLP370
T01001039


USA.gov is the U.S. government's official web portal to all federal, state and local government web resources and services.